Ft Myer, Virginia
Current Conditions -  °F | °C
As of 3:52 AM on Sunday 23 Nov 2014 (Local Time) from KDCA Reporting Station
Scattered Clouds Scattered Clouds  
Wind Chill: 38°   Ceiling: Unl
Heat Index: 43°   Visibility: 10mi
Dew Point: 19°   Wind: 8mph
Humidity: 38%   Direction: 210°SSW
Pressure: 30.22"   Gusts: NA
Location:  38.8787°N, 77.0774°W
Report Text: KDCA 230852Z 21007KT 10SM SCT110 06/M07 A3022 RMK AO2 SLP233 T00611072 58009
Loading
Personal Weather Stations






























Interactive Weather Map New forecast layout! Learn more

10-Day Weather Forecast

Advertisements
Track Severe Weather on mobile